createdAt,value
2022-09-18T00:00:14.143Z,94.96
2022-09-18T00:02:40.525Z,95.15
2022-09-18T00:05:07.310Z,95.41
2022-09-18T00:09:59.896Z,95.70
2022-09-18T00:14:52.583Z,95.97
2022-09-18T00:17:18.921Z,95.94
2022-09-18T00:22:11.540Z,95.90
2022-09-18T00:29:30.695Z,96.27
2022-09-18T00:31:57.087Z,96.26
2022-09-18T00:34:23.457Z,96.28
2022-09-18T00:36:50.371Z,96.29
2022-09-18T00:39:16.877Z,96.21
2022-09-18T00:41:44.280Z,96.29
2022-09-18T00:47:01.003Z,96.32
2022-09-18T00:49:28.004Z,96.36
2022-09-18T00:51:58.564Z,96.46
2022-09-18T00:54:34.193Z,96.46
2022-09-18T00:59:31.890Z,96.97
2022-09-18T01:02:00.097Z,96.73
2022-09-18T01:07:29.022Z,96.87
2022-09-18T01:15:00.887Z,96.94
2022-09-18T01:25:26.763Z,96.70
2022-09-18T01:28:09.721Z,96.83
2022-09-18T01:35:43.563Z,96.75
2022-09-18T01:38:23.919Z,96.70
2022-09-18T01:41:03.246Z,96.67
2022-09-18T01:43:31.742Z,96.69
2022-09-18T01:46:04.318Z,96.71
2022-09-18T01:48:50.346Z,96.58
2022-09-18T01:51:22.123Z,96.58
2022-09-18T01:53:58.169Z,96.59
2022-09-18T01:56:30.858Z,96.46
2022-09-18T01:59:01.870Z,96.60
2022-09-18T02:04:19.095Z,96.31
2022-09-18T02:06:59.432Z,96.25
2022-09-18T02:09:27.317Z,96.15
2022-09-18T02:14:38.351Z,96.32
2022-09-18T02:20:20.476Z,96.73
2022-09-18T02:22:50.881Z,96.59
2022-09-18T02:25:25.189Z,96.56
2022-09-18T02:30:18.409Z,96.59
2022-09-18T02:32:45.066Z,96.75
2022-09-18T02:35:11.663Z,96.85
2022-09-18T02:38:04.454Z,96.49
2022-09-18T02:43:20.685Z,96.43
2022-09-18T02:46:11.487Z,96.70
2022-09-18T02:51:31.689Z,96.60
2022-09-18T02:54:13.578Z,96.72
2022-09-18T02:56:53.639Z,97.02
2022-09-18T02:59:47.410Z,97.09
2022-09-18T03:02:20.189Z,97.10
2022-09-18T03:04:46.813Z,97.00
2022-09-18T03:07:33.463Z,96.83
2022-09-18T03:09:59.981Z,96.95
2022-09-18T03:12:26.334Z,97.25
2022-09-18T03:17:18.959Z,97.04
2022-09-18T03:19:45.778Z,96.69
2022-09-18T03:24:41.522Z,96.58
2022-09-18T03:27:07.913Z,96.70
2022-09-18T03:29:35.262Z,96.75
2022-09-18T03:32:02.859Z,96.51
2022-09-18T03:34:35.133Z,96.56
2022-09-18T03:37:01.525Z,96.61
2022-09-18T03:39:27.902Z,96.54
2022-09-18T03:41:54.331Z,96.70
2022-09-18T03:44:21.165Z,96.71
2022-09-18T03:51:41.191Z,96.99
2022-09-18T03:54:07.965Z,97.27
2022-09-18T03:56:42.231Z,97.37
2022-09-18T03:59:15.733Z,97.07
2022-09-18T04:02:02.392Z,97.35
2022-09-18T04:07:47.314Z,97.90
2022-09-18T04:10:42.825Z,98.14
2022-09-18T04:13:09.249Z,98.10
2022-09-18T04:15:36.643Z,98.10
2022-09-18T04:18:03.115Z,98.12
2022-09-18T04:20:29.515Z,98.47
2022-09-18T04:22:57.746Z,98.67
2022-09-18T04:32:45.577Z,98.41
2022-09-18T04:35:12.201Z,98.59
2022-09-18T04:37:38.801Z,98.45
2022-09-18T04:40:06.492Z,98.56
2022-09-18T04:42:33.788Z,98.62
2022-09-18T04:47:27.142Z,98.62
2022-09-18T04:49:53.810Z,98.65
2022-09-18T04:54:46.732Z,98.87
2022-09-18T04:57:13.454Z,98.78
2022-09-18T04:59:43.304Z,98.90
2022-09-18T05:02:09.924Z,98.78
2022-09-18T05:04:36.320Z,98.58
2022-09-18T05:07:12.863Z,98.83
2022-09-18T05:09:39.281Z,99.05
2022-09-18T05:17:03.970Z,98.90
2022-09-18T05:19:38.219Z,99.02
2022-09-18T05:22:11.162Z,99.09
2022-09-18T05:24:41.852Z,98.97
2022-09-18T05:27:08.686Z,99.13
2022-09-18T05:29:35.612Z,99.09
2022-09-18T05:32:09.936Z,99.17
2022-09-18T05:34:37.134Z,99.14
2022-09-18T05:37:03.525Z,99.02
2022-09-18T05:39:29.912Z,99.23
2022-09-18T05:41:58.597Z,99.17
2022-09-18T05:44:24.985Z,99.24
2022-09-18T05:46:52.227Z,99.43
2022-09-18T05:49:18.711Z,99.40
2022-09-18T05:51:46.269Z,99.37
2022-09-18T05:54:14.886Z,99.29
2022-09-18T05:56:48.024Z,99.28
2022-09-18T05:59:14.877Z,99.15
2022-09-18T06:01:46.983Z,99.06
2022-09-18T06:04:13.714Z,99.05
2022-09-18T06:09:14.056Z,99.33
2022-09-18T06:11:40.390Z,99.51
2022-09-18T06:14:06.789Z,99.56
2022-09-18T06:19:07.115Z,99.24
2022-09-18T06:24:00.305Z,99.16
2022-09-18T06:31:34.703Z,99.67
2022-09-18T06:34:06.902Z,99.64
2022-09-18T06:36:33.283Z,99.66
2022-09-18T06:39:18.112Z,99.64
2022-09-18T06:47:00.883Z,99.66
2022-09-18T06:49:34.518Z,99.68
2022-09-18T06:52:03.032Z,99.51
2022-09-18T06:54:30.573Z,99.42
2022-09-18T06:56:57.447Z,99.19
2022-09-18T06:59:23.978Z,99.25
2022-09-18T07:01:51.492Z,98.96
2022-09-18T07:04:26.001Z,98.84
2022-09-18T07:06:52.325Z,98.89
2022-09-18T07:09:18.808Z,99.04
2022-09-18T07:12:18.133Z,99.02
2022-09-18T07:17:18.594Z,99.09
2022-09-18T07:19:47.783Z,99.23
2022-09-18T07:22:16.356Z,99.58
2022-09-18T07:24:46.203Z,99.79
2022-09-18T07:27:13.142Z,99.38
2022-09-18T07:32:09.097Z,99.29
2022-09-18T07:37:03.466Z,98.73
2022-09-18T07:39:30.319Z,98.76
2022-09-18T07:47:15.266Z,98.06
2022-09-18T07:49:42.626Z,97.81
2022-09-18T07:52:10.459Z,97.21
2022-09-18T07:57:26.282Z,96.95
2022-09-18T08:02:42.033Z,95.77
2022-09-18T08:05:10.888Z,95.45
2022-09-18T08:07:42.874Z,95.00
2022-09-18T08:10:30.080Z,95.26
2022-09-18T08:13:13.029Z,95.52
2022-09-18T08:15:59.995Z,95.09
2022-09-18T08:18:46.683Z,95.34
2022-09-18T08:21:39.348Z,95.11
2022-09-18T08:24:09.380Z,95.46
2022-09-18T08:26:38.514Z,95.53
2022-09-18T08:31:33.489Z,95.63
2022-09-18T08:34:01.553Z,95.92
2022-09-18T08:36:28.049Z,96.22
2022-09-18T08:41:59.481Z,96.51
2022-09-18T08:47:04.277Z,96.85
2022-09-18T08:49:37.326Z,97.30
2022-09-18T08:52:17.588Z,97.23
2022-09-18T08:54:55.438Z,97.91
2022-09-18T08:57:49.611Z,97.92
2022-09-18T09:00:34.651Z,98.03
2022-09-18T09:03:33.862Z,98.32
2022-09-18T09:06:38.510Z,98.38
2022-09-18T09:09:31.732Z,98.86
2022-09-18T09:12:26.405Z,99.13
2022-09-18T09:15:12.857Z,99.22
2022-09-18T09:17:46.764Z,99.69
2022-09-18T09:20:25.368Z,100.00
2022-09-18T09:23:04.434Z,99.38
2022-09-18T09:31:54.941Z,99.26
2022-09-18T09:40:11.962Z,99.50
2022-09-18T09:42:55.761Z,99.43
2022-09-18T09:45:33.210Z,99.68
2022-09-18T09:48:12.061Z,99.47
2022-09-18T09:50:51.283Z,99.41
2022-09-18T09:53:18.656Z,99.48
2022-09-18T09:56:01.381Z,99.50
2022-09-18T09:58:40.415Z,99.48
2022-09-18T10:01:15.322Z,99.77
2022-09-18T10:09:08.096Z,99.50
2022-09-18T10:14:15.153Z,99.90
2022-09-18T10:16:53.986Z,100.00
2022-09-18T10:21:52.995Z,99.96
2022-09-18T10:24:28.111Z,100.00
2022-09-18T10:27:00.492Z,100.00
2022-09-18T10:32:03.641Z,99.56
2022-09-18T10:34:49.467Z,99.29
2022-09-18T10:37:28.394Z,98.50
2022-09-18T10:40:01.313Z,98.47
2022-09-18T10:48:16.524Z,95.83
2022-09-18T10:53:34.157Z,93.83
2022-09-18T10:56:19.911Z,92.67
2022-09-18T11:01:14.703Z,93.25
2022-09-18T11:09:02.152Z,94.46
2022-09-18T11:11:33.779Z,94.42
2022-09-18T11:14:18.765Z,94.73
2022-09-18T11:27:45.595Z,94.15
2022-09-18T11:30:20.887Z,94.23
2022-09-18T11:35:19.595Z,95.25
2022-09-18T11:37:53.292Z,95.63
2022-09-18T11:40:29.696Z,95.57
2022-09-18T11:45:36.186Z,95.77
2022-09-18T11:48:21.532Z,96.01
2022-09-18T11:50:51.210Z,96.43
2022-09-18T11:53:23.735Z,96.56
2022-09-18T11:56:14.550Z,96.80
2022-09-18T11:58:47.812Z,96.83
2022-09-18T12:01:32.598Z,96.79
2022-09-18T12:04:17.977Z,96.85
2022-09-18T12:07:05.743Z,96.62
2022-09-18T12:09:57.053Z,95.69
2022-09-18T12:12:31.287Z,95.57
2022-09-18T12:15:05.250Z,95.82
2022-09-18T12:17:54.306Z,95.35
2022-09-18T12:20:37.836Z,95.07
2022-09-18T12:23:13.164Z,96.10
2022-09-18T12:26:10.181Z,94.77
2022-09-18T12:29:21.495Z,95.25
2022-09-18T12:32:08.228Z,95.05
2022-09-18T12:40:07.330Z,94.60
2022-09-18T12:45:27.672Z,93.89
2022-09-18T12:53:13.956Z,93.49
2022-09-18T12:55:53.626Z,94.25
2022-09-18T13:06:41.238Z,94.06
2022-09-18T13:09:21.668Z,94.56
2022-09-18T13:11:56.158Z,94.52
2022-09-18T13:17:14.380Z,94.30
2022-09-18T13:20:16.162Z,94.04
2022-09-18T13:22:47.526Z,94.18
2022-09-18T13:27:54.542Z,94.35
2022-09-18T13:35:23.977Z,93.91
2022-09-18T13:38:09.437Z,94.05
2022-09-18T13:43:37.578Z,93.54
2022-09-18T13:46:07.051Z,92.62
2022-09-18T13:48:39.754Z,92.56
2022-09-18T13:53:44.022Z,93.56
2022-09-18T13:56:15.887Z,93.98
2022-09-18T13:58:52.611Z,94.23
2022-09-18T14:01:58.934Z,94.71
2022-09-18T14:04:40.672Z,94.64
2022-09-18T14:07:16.091Z,94.38
2022-09-18T14:09:53.123Z,94.64
2022-09-18T14:12:20.835Z,95.16
2022-09-18T14:17:27.121Z,95.86
2022-09-18T14:20:01.345Z,96.11
2022-09-18T14:22:34.222Z,96.06
2022-09-18T14:25:03.376Z,96.19
2022-09-18T14:27:33.077Z,96.34
2022-09-18T14:30:04.372Z,96.63
2022-09-18T14:32:31.471Z,96.40
2022-09-18T14:35:22.687Z,96.48
2022-09-18T14:37:49.065Z,96.08
2022-09-18T14:40:23.903Z,96.41
2022-09-18T14:42:50.405Z,95.95
2022-09-18T14:47:54.234Z,96.25
2022-09-18T14:50:36.757Z,96.19
2022-09-18T14:56:06.436Z,95.83
2022-09-18T15:01:07.381Z,96.08
2022-09-18T15:03:38.856Z,96.04
2022-09-18T15:08:34.718Z,96.24
2022-09-18T15:11:01.111Z,96.63
2022-09-18T15:18:30.263Z,96.86
2022-09-18T15:20:59.377Z,96.62
2022-09-18T15:23:32.749Z,97.15
2022-09-18T15:28:34.651Z,97.55
2022-09-18T15:31:04.731Z,97.90
2022-09-18T15:33:34.953Z,98.04
2022-09-18T15:36:04.684Z,97.94
2022-09-18T15:38:42.994Z,98.12
2022-09-18T15:41:29.666Z,98.07
2022-09-18T15:43:56.203Z,98.06
2022-09-18T15:46:34.487Z,97.87
2022-09-18T15:51:32.305Z,98.31
2022-09-18T15:54:22.881Z,98.38
2022-09-18T15:56:55.330Z,98.27
2022-09-18T15:59:40.491Z,98.15
2022-09-18T16:02:35.942Z,98.06
2022-09-18T16:07:37.482Z,97.88
2022-09-18T16:12:30.972Z,97.96
2022-09-18T16:15:18.135Z,97.84
2022-09-18T16:17:44.450Z,97.79
2022-09-18T16:22:54.246Z,97.49
2022-09-18T16:25:24.986Z,97.07
2022-09-18T16:27:55.904Z,96.91
2022-09-18T16:30:26.638Z,97.11
2022-09-18T16:33:17.166Z,96.50
2022-09-18T16:35:43.595Z,96.10
2022-09-18T16:40:36.640Z,95.54
2022-09-18T16:48:00.446Z,95.14
2022-09-18T16:50:27.451Z,94.84
2022-09-18T16:52:54.818Z,94.77
2022-09-18T16:57:51.358Z,95.11
2022-09-18T17:00:18.102Z,95.41
2022-09-18T17:02:44.640Z,95.41
2022-09-18T17:07:37.655Z,94.81
2022-09-18T17:10:04.429Z,94.23
2022-09-18T17:12:30.895Z,94.18
2022-09-18T17:22:18.990Z,94.56
2022-09-18T17:24:47.368Z,95.00
2022-09-18T17:27:13.806Z,94.55
2022-09-18T17:29:40.242Z,95.01
2022-09-18T17:32:07.558Z,95.02
2022-09-18T17:34:34.263Z,95.52
2022-09-18T17:37:01.920Z,95.32
2022-09-18T17:41:55.627Z,95.57
2022-09-18T17:44:24.154Z,95.78
2022-09-18T17:46:52.618Z,96.08
2022-09-18T17:49:19.937Z,96.16
2022-09-18T17:56:39.530Z,96.62
2022-09-18T17:59:08.867Z,96.64
2022-09-18T18:04:05.366Z,96.72
2022-09-18T18:06:32.307Z,96.68
2022-09-18T18:08:58.957Z,96.51
2022-09-18T18:11:25.846Z,96.40
2022-09-18T18:13:54.208Z,96.59
2022-09-18T18:16:23.297Z,96.48
2022-09-18T18:21:22.401Z,96.13
2022-09-18T18:23:49.210Z,95.80
2022-09-18T18:28:45.070Z,95.37
2022-09-18T18:33:41.071Z,95.14
2022-09-18T18:36:14.789Z,95.11
2022-09-18T18:38:44.465Z,95.54
2022-09-18T18:43:40.760Z,95.76
2022-09-18T18:48:36.763Z,95.81
2022-09-18T18:53:35.060Z,96.08
2022-09-18T18:56:10.028Z,95.92
2022-09-18T18:58:37.341Z,96.45
2022-09-18T19:01:05.763Z,96.80
2022-09-18T19:06:04.669Z,96.95
2022-09-18T19:08:31.098Z,96.85
2022-09-18T19:10:58.955Z,96.80
2022-09-18T19:13:25.607Z,96.86
2022-09-18T19:18:19.177Z,96.99
2022-09-18T19:20:49.543Z,97.17
2022-09-18T19:23:16.741Z,97.40
2022-09-18T19:25:44.110Z,97.66
2022-09-18T19:28:11.559Z,97.69
2022-09-18T19:33:13.401Z,97.67
2022-09-18T19:35:39.756Z,97.47
2022-09-18T19:38:06.171Z,97.61
2022-09-18T19:40:35.238Z,97.83
2022-09-18T19:43:08.852Z,98.04
2022-09-18T19:45:37.181Z,98.14
2022-09-18T19:48:07.242Z,98.30
2022-09-18T19:50:38.157Z,98.60
2022-09-18T19:53:04.556Z,98.75
2022-09-18T19:55:30.873Z,98.87
2022-09-18T19:57:59.184Z,98.86
2022-09-18T20:00:26.207Z,98.86
2022-09-18T20:07:48.911Z,99.47
2022-09-18T20:12:42.050Z,99.68
2022-09-18T20:15:09.854Z,99.79
2022-09-18T20:17:36.997Z,99.88
2022-09-18T20:20:08.729Z,100.00
2022-09-18T20:22:38.228Z,100.00
2022-09-18T20:25:04.837Z,100.00
2022-09-18T20:27:35.877Z,100.00
2022-09-18T20:30:03.763Z,100.00
2022-09-18T20:39:50.762Z,100.00
2022-09-18T20:44:43.489Z,100.00
2022-09-18T20:47:09.839Z,100.00
2022-09-18T20:49:36.619Z,100.00
2022-09-18T20:52:03.436Z,100.00
2022-09-18T20:54:30.392Z,100.00
2022-09-18T20:56:57.605Z,100.00
2022-09-18T20:59:24.786Z,100.00
2022-09-18T21:01:51.861Z,100.00
2022-09-18T21:06:49.061Z,100.00
2022-09-18T21:14:11.921Z,100.00
2022-09-18T21:16:48.885Z,100.00
2022-09-18T21:21:43.343Z,100.00
2022-09-18T21:24:10.007Z,100.00
2022-09-18T21:26:39.173Z,100.00
2022-09-18T21:29:22.890Z,100.00
2022-09-18T21:31:52.536Z,100.00
2022-09-18T21:34:30.897Z,100.00
2022-09-18T21:39:28.047Z,100.00
2022-09-18T21:41:55.912Z,100.00
2022-09-18T21:44:27.017Z,99.88
2022-09-18T21:47:01.818Z,99.60
2022-09-18T21:51:58.768Z,99.25
2022-09-18T21:54:26.069Z,99.20
2022-09-18T21:56:52.989Z,99.09
2022-09-18T21:59:21.072Z,99.03
2022-09-18T22:01:48.737Z,99.06
2022-09-18T22:04:15.111Z,99.03
2022-09-18T22:06:43.975Z,98.77
2022-09-18T22:09:14.836Z,99.10
2022-09-18T22:11:42.519Z,99.21
2022-09-18T22:14:12.124Z,99.27
2022-09-18T22:19:08.242Z,99.05
2022-09-18T22:21:37.724Z,99.00
2022-09-18T22:24:07.214Z,98.74
2022-09-18T22:26:36.019Z,98.81
2022-09-18T22:29:07.395Z,98.75
2022-09-18T22:36:29.901Z,98.73
2022-09-18T22:41:22.966Z,98.50
2022-09-18T22:43:54.476Z,98.51
2022-09-18T22:46:21.846Z,98.54
2022-09-18T22:48:48.457Z,98.75
2022-09-18T22:51:24.240Z,98.72
2022-09-18T22:53:54.141Z,98.86
2022-09-18T23:01:16.645Z,98.59
2022-09-18T23:06:09.791Z,98.11
2022-09-18T23:08:37.421Z,98.18
2022-09-18T23:16:11.589Z,97.85
2022-09-18T23:21:13.656Z,97.77
2022-09-18T23:26:12.272Z,97.89
2022-09-18T23:28:41.024Z,97.67
2022-09-18T23:31:10.609Z,97.78
2022-09-18T23:33:38.204Z,97.82
2022-09-18T23:41:06.615Z,97.66
2022-09-18T23:43:33.541Z,97.56
2022-09-18T23:53:22.112Z,97.46
2022-09-18T23:55:48.895Z,97.46
2022-09-18T23:58:16.641Z,97.31
